Time;durP1;ratioP1;P1;durP2;ratioP2;P2;SDS_P1;SDS_P2;PMS_P1;PMS_P2;Temp;Humidity;BMP_temperature;BMP_pressure;BME280_temperature;BME280_humidity;BME280_pressure;Samples;Min_cycle;Max_cycle;Signal;HPM_P1;HPM_P2
2022/02/17 00:01:15;;;;;;;5.40;1.40;;;13.10;99.90;;;;;;5190570;22;20142;-74
2022/02/17 00:03:15;;;;;;;4.50;1.00;;;13.10;99.90;;;;;;5190687;22;20007;-74
2022/02/17 00:05:17;;;;;;;4.65;1.48;;;13.00;99.90;;;;;;5190170;22;20054;-74
2022/02/17 00:07:17;;;;;;;7.93;1.73;;;13.00;99.90;;;;;;5190587;22;20039;-74
2022/02/17 00:09:18;;;;;;;6.50;1.42;;;12.90;99.90;;;;;;5190486;22;20429;-74
2022/02/17 00:11:18;;;;;;;3.88;1.20;;;12.90;99.90;;;;;;5189826;22;20437;-74
2022/02/17 00:13:19;;;;;;;3.80;1.10;;;12.90;99.90;;;;;;5187850;22;20421;-74
2022/02/17 00:15:19;;;;;;;4.45;1.05;;;12.90;99.90;;;;;;5189744;22;20461;-75
2022/02/17 00:17:20;;;;;;;3.95;1.50;;;12.90;99.90;;;;;;5190412;22;20090;-74
2022/02/17 00:19:22;;;;;;;3.40;1.08;;;12.80;99.90;;;;;;5190036;22;20011;-74
2022/02/17 00:21:22;;;;;;;3.90;1.27;;;12.80;99.90;;;;;;5189311;22;20016;-75
2022/02/17 00:23:25;;;;;;;3.60;1.27;;;12.90;99.90;;;;;;5187655;22;20014;-74
2022/02/17 00:25:25;;;;;;;4.13;1.50;;;12.80;99.90;;;;;;5187374;22;20453;-74
2022/02/17 00:27:26;;;;;;;4.38;0.90;;;12.70;99.90;;;;;;5187867;22;20031;-74
2022/02/17 00:29:26;;;;;;;5.20;1.45;;;12.60;99.90;;;;;;5189742;22;20016;-74
2022/02/17 00:31:27;;;;;;;2.78;0.90;;;12.60;99.90;;;;;;5188639;22;20012;-74
2022/02/17 00:33:28;;;;;;;5.70;1.27;;;12.60;99.90;;;;;;5190643;22;20450;-74
2022/02/17 00:35:30;;;;;;;2.60;1.10;;;12.60;99.90;;;;;;5186833;22;20020;-74
2022/02/17 00:37:31;;;;;;;3.05;1.00;;;12.60;99.90;;;;;;5190212;22;20090;-75
2022/02/17 00:39:33;;;;;;;3.90;1.00;;;12.50;99.90;;;;;;5187799;22;20445;-74
2022/02/17 00:41:34;;;;;;;4.50;1.08;;;12.50;99.90;;;;;;5189162;22;20043;-74
2022/02/17 00:43:34;;;;;;;2.85;1.00;;;12.50;99.90;;;;;;5190096;22;20034;-75
2022/02/17 00:45:35;;;;;;;3.67;1.05;;;12.50;99.90;;;;;;5189333;22;20008;-75
2022/02/17 00:47:35;;;;;;;5.38;1.05;;;12.40;99.90;;;;;;5187538;22;20026;-74
2022/02/17 00:49:37;;;;;;;3.42;1.33;;;12.40;99.90;;;;;;5189463;22;20091;-74
2022/02/17 00:51:41;;;;;;;3.92;0.98;;;12.30;99.90;;;;;;5188441;22;20027;-75
2022/02/17 00:53:42;;;;;;;6.28;1.42;;;12.40;99.90;;;;;;5188707;22;20516;-74
2022/02/17 00:55:42;;;;;;;4.43;1.00;;;12.30;99.90;;;;;;5189844;22;20004;-74
2022/02/17 00:57:43;;;;;;;3.75;1.30;;;12.30;99.90;;;;;;5187701;22;20007;-73
2022/02/17 00:59:43;;;;;;;3.90;1.48;;;12.30;99.90;;;;;;5190386;22;20133;-74
2022/02/17 01:01:46;;;;;;;6.60;1.40;;;12.30;99.90;;;;;;5186416;22;20015;-74
2022/02/17 01:03:47;;;;;;;5.25;1.10;;;12.30;99.90;;;;;;5188915;22;20007;-75
2022/02/17 01:05:48;;;;;;;3.22;1.08;;;12.30;99.90;;;;;;5188599;22;20526;-74
2022/02/17 01:07:48;;;;;;;4.55;1.00;;;12.30;99.90;;;;;;5190125;22;20016;-74
2022/02/17 01:09:49;;;;;;;5.15;0.98;;;12.30;99.90;;;;;;5190044;22;20016;-75
2022/02/17 01:11:49;;;;;;;5.40;0.90;;;12.30;99.90;;;;;;5189575;22;20008;-74
2022/02/17 01:13:50;;;;;;;4.60;1.00;;;12.20;99.90;;;;;;5187331;22;20035;-74
2022/02/17 01:15:51;;;;;;;3.22;1.10;;;12.20;99.90;;;;;;5189459;22;20012;-75
2022/02/17 01:17:51;;;;;;;3.38;1.35;;;12.20;99.90;;;;;;5190045;22;20087;-74
2022/02/17 01:19:52;;;;;;;4.47;1.10;;;12.10;99.90;;;;;;5189905;22;20007;-74
2022/02/17 01:21:53;;;;;;;3.80;1.20;;;12.10;99.90;;;;;;5188920;22;20433;-74
2022/02/17 01:23:54;;;;;;;7.63;1.80;;;12.10;99.90;;;;;;5189561;22;20373;-74
2022/02/17 01:25:55;;;;;;;5.60;1.60;;;12.10;99.90;;;;;;5188333;22;20501;-74
2022/02/17 01:27:57;;;;;;;6.70;1.63;;;12.10;99.90;;;;;;5189279;22;20004;-75
2022/02/17 01:29:58;;;;;;;7.30;1.90;;;12.10;99.90;;;;;;5188931;22;20094;-74
2022/02/17 01:31:58;;;;;;;6.20;2.08;;;12.10;99.90;;;;;;5188237;22;20432;-74
2022/02/17 01:33:59;;;;;;;5.43;1.73;;;12.10;99.90;;;;;;5186566;22;20405;-74
2022/02/17 01:36:00;;;;;;;7.13;1.63;;;12.10;99.90;;;;;;5160102;23;20016;-74
2022/02/17 01:38:00;;;;;;;11.40;2.45;;;12.00;99.90;;;;;;5188641;22;20004;-74
2022/02/17 01:40:01;;;;;;;12.18;2.17;;;12.00;99.90;;;;;;5188440;22;20004;-74
2022/02/17 01:42:07;;;;;;;8.80;2.50;;;12.10;99.90;;;;;;5190670;22;20008;-74
2022/02/17 01:44:08;;;;;;;7.05;2.00;;;12.10;99.90;;;;;;5190747;22;20319;-74
2022/02/17 01:46:09;;;;;;;11.02;2.55;;;12.10;99.90;;;;;;5187970;22;20057;-73
2022/02/17 01:48:11;;;;;;;10.25;2.50;;;12.10;99.90;;;;;;5188549;22;20049;-74
2022/02/17 01:50:12;;;;;;;9.85;2.88;;;12.10;99.90;;;;;;5190964;22;20138;-74
2022/02/17 01:52:14;;;;;;;18.02;2.97;;;12.10;99.90;;;;;;5188628;22;20039;-74
2022/02/17 01:54:15;;;;;;;10.25;2.33;;;12.10;99.90;;;;;;5188396;22;20505;-74
2022/02/17 01:56:17;;;;;;;10.68;2.50;;;12.10;99.90;;;;;;5190629;22;20038;-74
2022/02/17 01:58:18;;;;;;;14.82;2.83;;;12.00;99.90;;;;;;5163308;23;20126;-74
2022/02/17 02:00:18;;;;;;;15.18;3.30;;;12.00;99.90;;;;;;5190427;22;20023;-74
2022/02/17 02:02:21;;;;;;;16.08;3.25;;;12.10;99.90;;;;;;5191791;22;20023;-74
2022/02/17 02:04:21;;;;;;;11.23;2.45;;;12.00;99.90;;;;;;5188289;22;20032;-74
2022/02/17 02:06:22;;;;;;;14.73;3.20;;;12.00;99.90;;;;;;5190197;22;20425;-74
2022/02/17 02:08:23;;;;;;;11.95;2.75;;;11.90;99.90;;;;;;5190572;22;20014;-74
2022/02/17 02:10:25;;;;;;;13.65;3.10;;;11.90;99.90;;;;;;5190044;22;20050;-74
2022/02/17 02:12:26;;;;;;;14.38;2.67;;;11.90;99.90;;;;;;5163660;23;20432;-74
2022/02/17 02:14:27;;;;;;;13.70;3.08;;;11.90;99.90;;;;;;5188333;22;20004;-74
2022/02/17 02:16:27;;;;;;;14.77;2.83;;;11.90;99.90;;;;;;5189875;22;20353;-74
2022/02/17 02:18:28;;;;;;;17.00;3.67;;;11.90;99.90;;;;;;5190226;22;20039;-74
2022/02/17 02:20:29;;;;;;;17.48;3.70;;;12.00;99.90;;;;;;5190228;22;20090;-74
2022/02/17 02:22:31;;;;;;;17.02;4.03;;;12.00;99.90;;;;;;5188047;22;20016;-74
2022/02/17 02:24:33;;;;;;;18.50;3.55;;;12.00;99.90;;;;;;5190750;22;20018;-74
2022/02/17 02:26:34;;;;;;;19.60;4.05;;;12.00;99.90;;;;;;5187854;22;20012;-74
2022/02/17 02:28:35;;;;;;;15.77;3.70;;;12.00;99.90;;;;;;5191026;22;20437;-74
2022/02/17 02:30:36;;;;;;;16.08;3.50;;;12.00;99.90;;;;;;5188021;22;20061;-74
2022/02/17 02:32:36;;;;;;;16.73;3.80;;;12.00;99.90;;;;;;5190731;22;20008;-74
2022/02/17 02:34:37;;;;;;;15.43;3.13;;;11.80;99.90;;;;;;5188803;22;20008;-74
2022/02/17 02:36:38;;;;;;;13.25;2.97;;;11.70;99.90;;;;;;5188130;22;20031;-74
2022/02/17 02:38:38;;;;;;;13.23;2.97;;;11.60;99.90;;;;;;5190327;22;20526;-74
2022/02/17 02:40:39;;;;;;;11.98;2.97;;;11.60;99.90;;;;;;5187538;22;20018;-74
2022/02/17 02:42:40;;;;;;;17.30;3.15;;;11.50;99.90;;;;;;5189350;22;20016;-74
2022/02/17 02:44:40;;;;;;;19.00;3.58;;;11.40;99.90;;;;;;5191446;22;20054;-74
2022/02/17 02:46:41;;;;;;;11.65;3.55;;;11.30;99.90;;;;;;5190670;22;20393;-74
2022/02/17 02:48:42;;;;;;;10.70;2.72;;;11.30;99.90;;;;;;5191219;22;20016;-74
2022/02/17 02:50:43;;;;;;;16.15;3.63;;;11.20;99.90;;;;;;5190489;22;20353;-74
2022/02/17 02:52:43;;;;;;;14.20;3.60;;;11.20;99.90;;;;;;5191754;22;20074;-74
2022/02/17 02:54:44;;;;;;;12.65;3.55;;;11.30;99.90;;;;;;5191409;22;20497;-74
2022/02/17 02:56:45;;;;;;;23.52;4.68;;;11.20;99.90;;;;;;5190677;22;20027;-74
2022/02/17 02:58:45;;;;;;;17.65;4.13;;;11.20;99.90;;;;;;5191160;22;20011;-74
2022/02/17 03:00:48;;;;;;;15.55;3.30;;;11.20;99.90;;;;;;5187127;22;20433;-74
2022/02/17 03:02:48;;;;;;;;;;;11.20;99.90;;;;;;5188841;22;20012;-74
2022/02/17 03:04:49;;;;;;;23.00;4.70;;;11.20;99.90;;;;;;5188713;22;20302;-74
2022/02/17 03:06:50;;;;;;;18.13;4.07;;;11.30;99.90;;;;;;5187712;22;20400;-74
2022/02/17 03:08:50;;;;;;;23.58;4.00;;;11.20;99.90;;;;;;5187846;22;20008;-74
2022/02/17 03:10:51;;;;;;;27.17;4.88;;;11.30;99.90;;;;;;5190112;22;20034;-74
2022/02/17 03:12:51;;;;;;;19.52;4.38;;;11.30;99.90;;;;;;5190733;22;20018;-74
2022/02/17 03:14:52;;;;;;;23.42;4.18;;;11.20;99.90;;;;;;5191218;22;20445;-74
2022/02/17 03:16:52;;;;;;;22.25;4.28;;;11.30;99.90;;;;;;5189827;22;20007;-74
2022/02/17 03:18:54;;;;;;;21.90;4.95;;;11.20;99.90;;;;;;5190593;22;20007;-74
2022/02/17 03:20:55;;;;;;;22.33;4.45;;;11.20;99.90;;;;;;5189988;22;20016;-74
2022/02/17 03:22:56;;;;;;;18.85;4.75;;;11.20;99.90;;;;;;5190658;22;20014;-74
2022/02/17 03:24:56;;;;;;;19.65;4.05;;;11.20;99.90;;;;;;5188082;22;20012;-74
2022/02/17 03:26:57;;;;;;;32.75;5.15;;;11.30;99.90;;;;;;5189637;22;20457;-74
2022/02/17 03:28:57;;;;;;;19.40;4.78;;;11.20;99.90;;;;;;5190040;22;20027;-74
2022/02/17 03:30:58;;;;;;;24.08;5.07;;;11.20;99.90;;;;;;5189105;22;20054;-74
2022/02/17 03:33:02;;;;;;;18.60;4.05;;;11.20;99.90;;;;;;5190176;22;20015;-74
2022/02/17 03:35:04;;;;;;;19.00;4.57;;;11.20;99.90;;;;;;5189560;22;20012;-74
2022/02/17 03:37:05;;;;;;;18.30;3.97;;;11.20;99.90;;;;;;5189610;22;20432;-74
2022/02/17 03:39:05;;;;;;;26.90;4.68;;;11.20;99.90;;;;;;5190200;22;20034;-74
2022/02/17 03:41:06;;;;;;;28.48;5.60;;;11.20;99.90;;;;;;5189814;22;20016;-74
2022/02/17 03:43:07;;;;;;;24.17;4.03;;;11.10;99.90;;;;;;5190264;22;20012;-74
2022/02/17 03:45:08;;;;;;;23.08;4.60;;;11.10;99.90;;;;;;5189819;22;20011;-74
2022/02/17 03:47:09;;;;;;;24.45;4.45;;;11.10;99.90;;;;;;5187305;22;20046;-74
2022/02/17 03:49:09;;;;;;;21.45;4.65;;;11.10;99.90;;;;;;5162733;23;20449;-74
2022/02/17 03:51:10;;;;;;;20.00;4.13;;;11.00;99.90;;;;;;5188685;22;20337;-73
2022/02/17 03:53:11;;;;;;;21.73;4.32;;;10.90;99.90;;;;;;5190018;22;20392;-74
2022/02/17 03:55:12;;;;;;;15.32;4.20;;;10.90;99.90;;;;;;5190019;22;20065;-74
2022/02/17 03:57:12;;;;;;;23.38;5.07;;;11.00;99.90;;;;;;5191100;22;20483;-74
2022/02/17 03:59:13;;;;;;;24.58;5.50;;;10.90;99.90;;;;;;5188406;22;20079;-74
2022/02/17 04:01:14;;;;;;;26.27;5.15;;;10.90;99.90;;;;;;5190283;22;20020;-74
2022/02/17 04:03:14;;;;;;;18.23;5.00;;;10.80;99.90;;;;;;5187539;22;20049;-74
2022/02/17 04:05:15;;;;;;;18.67;4.00;;;10.80;99.90;;;;;;5190665;22;20035;-74
2022/02/17 04:07:15;;;;;;;19.90;4.05;;;10.80;99.90;;;;;;5190973;22;20306;-74
2022/02/17 04:09:16;;;;;;;22.92;4.90;;;10.80;99.90;;;;;;5188416;22;20077;-73
2022/02/17 04:11:16;;;;;;;18.95;4.75;;;10.80;99.90;;;;;;5189842;22;20012;-74
2022/02/17 04:13:17;;;;;;;21.60;4.95;;;10.80;99.90;;;;;;5191114;22;20022;-74
2022/02/17 04:15:18;;;;;;;24.15;5.35;;;10.80;99.90;;;;;;5190164;22;20062;-74
2022/02/17 04:17:18;;;;;;;27.90;5.85;;;10.80;99.90;;;;;;5187870;22;20035;-74
2022/02/17 04:19:19;;;;;;;26.80;5.43;;;10.80;99.90;;;;;;5190855;22;20020;-73
2022/02/17 04:21:22;;;;;;;23.08;5.80;;;10.80;99.90;;;;;;5189415;22;20023;-74
2022/02/17 04:23:22;;;;;;;;;;;10.80;99.90;;;;;;5188349;22;20341;-74
2022/02/17 04:25:23;;;;;;;26.08;5.28;;;10.90;99.90;;;;;;5188830;22;19907;-74
2022/02/17 04:27:24;;;;;;;30.35;5.75;;;10.80;99.90;;;;;;5187999;22;20018;-74
2022/02/17 04:29:24;;;;;;;25.85;5.25;;;10.80;99.90;;;;;;5190140;22;20740;-74
2022/02/17 04:31:25;;;;;;;28.83;5.65;;;10.80;99.90;;;;;;5189196;22;20023;-74
2022/02/17 04:33:25;;;;;;;20.67;5.05;;;10.80;99.90;;;;;;5190259;22;20035;-74
2022/02/17 04:35:26;;;;;;;31.67;6.53;;;10.80;99.90;;;;;;5189667;22;20018;-74
2022/02/17 04:37:27;;;;;;;24.88;5.57;;;10.80;99.90;;;;;;5190462;22;20020;-74
2022/02/17 04:39:27;;;;;;;24.15;4.88;;;10.80;99.90;;;;;;5187359;22;20433;-74
2022/02/17 04:43:47;;;;;;;22.02;5.03;;;10.80;99.90;;;;;;5189425;22;20563;-74
2022/02/17 04:45:48;;;;;;;23.73;4.90;;;10.80;99.90;;;;;;5190139;22;20046;-74
2022/02/17 04:47:48;;;;;;;21.98;5.13;;;10.80;99.90;;;;;;5187679;22;20432;-74
2022/02/17 04:49:49;;;;;;;27.85;5.35;;;10.80;99.90;;;;;;5187373;22;20082;-74
2022/02/17 04:51:50;;;;;;;26.98;5.63;;;10.80;99.90;;;;;;5189581;22;20018;-74
2022/02/17 04:53:51;;;;;;;26.00;5.00;;;10.80;99.90;;;;;;5162362;23;20043;-73
2022/02/17 04:55:52;;;;;;;34.35;5.97;;;10.80;99.90;;;;;;5186495;22;20031;-74
2022/02/17 04:57:52;;;;;;;23.10;5.60;;;10.80;99.90;;;;;;5161430;23;20046;-74
2022/02/17 04:59:53;;;;;;;22.92;4.95;;;10.80;99.90;;;;;;5188699;22;20019;-73
2022/02/17 05:01:54;;;;;;;30.60;5.93;;;10.80;99.90;;;;;;5187800;22;20065;-74
2022/02/17 05:03:55;;;;;;;27.25;5.82;;;10.80;99.90;;;;;;5186764;22;20008;-73
2022/02/17 05:05:56;;;;;;;26.35;5.10;;;10.80;99.90;;;;;;5188619;22;20472;-74
2022/02/17 05:07:56;;;;;;;27.15;5.15;;;10.80;99.90;;;;;;5188932;22;20041;-74
2022/02/17 05:09:57;;;;;;;26.95;5.55;;;10.80;99.90;;;;;;5161862;23;20343;-74
2022/02/17 05:11:57;;;;;;;28.48;5.85;;;10.80;99.90;;;;;;5187444;22;20020;-74
2022/02/17 05:13:59;;;;;;;26.33;5.95;;;10.70;99.90;;;;;;5186924;22;20015;-74
2022/02/17 05:15:59;;;;;;;27.75;5.95;;;10.70;99.90;;;;;;5188709;22;20011;-74
2022/02/17 05:18:00;;;;;;;28.88;6.28;;;10.70;99.90;;;;;;5189011;22;20018;-74
2022/02/17 05:20:00;;;;;;;29.45;6.15;;;10.70;99.90;;;;;;5160731;23;20057;-74
2022/02/17 05:22:01;;;;;;;28.38;5.93;;;10.70;99.90;;;;;;5187468;22;20003;-74
2022/02/17 05:24:02;;;;;;;26.67;5.88;;;10.70;99.90;;;;;;5188642;22;20015;-74
2022/02/17 05:26:03;;;;;;;28.02;5.72;;;10.70;99.90;;;;;;5188832;22;20524;-74
2022/02/17 05:28:05;;;;;;;33.20;6.35;;;10.60;99.90;;;;;;5189777;22;20356;-74
2022/02/17 05:30:07;;;;;;;31.08;5.38;;;10.70;99.90;;;;;;5188595;22;20027;-74
2022/02/17 05:32:07;;;;;;;28.30;5.22;;;10.70;99.90;;;;;;5187352;22;20804;-74
2022/02/17 05:34:08;;;;;;;27.05;6.10;;;10.70;99.90;;;;;;5187906;22;20403;-74
2022/02/17 05:36:09;;;;;;;37.80;6.45;;;10.70;99.90;;;;;;5159169;23;20385;-73
2022/02/17 05:38:10;;;;;;;36.53;6.82;;;10.70;99.90;;;;;;5188428;22;20012;-73
2022/02/17 05:40:11;;;;;;;31.88;6.53;;;10.70;99.90;;;;;;5184863;22;20012;-74
2022/02/17 05:42:12;;;;;;;34.05;6.07;;;10.70;99.90;;;;;;5184676;22;20090;-74
2022/02/17 05:44:13;;;;;;;23.38;4.80;;;10.70;99.90;;;;;;5188128;22;20380;-73
2022/02/17 05:46:13;;;;;;;27.08;5.40;;;10.70;99.90;;;;;;5187576;22;20042;-73
2022/02/17 05:48:14;;;;;;;27.90;5.90;;;10.70;99.90;;;;;;5188559;22;20007;-74
2022/02/17 05:50:15;;;;;;;26.48;4.75;;;10.70;99.90;;;;;;5187785;22;20345;-74
2022/02/17 05:52:15;;;;;;;28.65;4.82;;;10.70;99.90;;;;;;5185216;22;20012;-73
2022/02/17 05:54:16;;;;;;;25.33;5.45;;;10.70;99.90;;;;;;5184764;22;20039;-74
2022/02/17 05:56:17;;;;;;;39.33;6.97;;;10.70;99.90;;;;;;5188006;22;20452;-74
2022/02/17 05:58:18;;;;;;;24.52;5.53;;;10.70;99.90;;;;;;5160590;23;20029;-74
2022/02/17 06:00:19;;;;;;;32.42;6.30;;;10.70;99.90;;;;;;5187598;22;20066;-74
2022/02/17 06:02:19;;;;;;;34.30;6.95;;;10.60;99.90;;;;;;5188059;22;20441;-74
2022/02/17 06:04:20;;;;;;;26.65;5.55;;;10.60;99.90;;;;;;5187811;22;20019;-74
2022/02/17 06:06:21;;;;;;;27.02;5.70;;;10.60;99.90;;;;;;5188027;22;20039;-74
2022/02/17 06:08:21;;;;;;;28.40;5.55;;;10.60;99.90;;;;;;5188467;22;20011;-74
2022/02/17 06:10:22;;;;;;;30.13;6.10;;;10.50;99.90;;;;;;5185373;22;20008;-74
2022/02/17 06:12:24;;;;;;;29.50;6.60;;;10.50;99.90;;;;;;5187303;22;20425;-74
2022/02/17 06:14:24;;;;;;;31.10;6.37;;;10.60;99.90;;;;;;5188161;22;20063;-74
2022/02/17 06:16:25;;;;;;;27.95;5.97;;;10.60;99.90;;;;;;5187221;22;20234;-74
2022/02/17 06:18:26;;;;;;;30.20;6.13;;;10.50;99.90;;;;;;5188035;22;20142;-74
2022/02/17 06:20:26;;;;;;;24.42;5.70;;;10.50;99.90;;;;;;5159566;23;20393;-74
2022/02/17 06:22:27;;;;;;;22.52;4.90;;;10.50;99.90;;;;;;5185394;22;20359;-74
2022/02/17 06:24:27;;;;;;;23.95;5.05;;;10.50;99.90;;;;;;5189063;22;20337;-74
2022/02/17 06:26:28;;;;;;;33.55;6.05;;;10.50;99.90;;;;;;5188698;22;20090;-74
2022/02/17 06:28:29;;;;;;;29.08;5.18;;;10.50;99.90;;;;;;5188965;22;20014;-74
2022/02/17 06:30:29;;;;;;;28.05;5.65;;;10.50;99.90;;;;;;5187746;22;20449;-74
2022/02/17 06:32:30;;;;;;;28.40;5.60;;;10.40;99.90;;;;;;5186672;22;20008;-74
2022/02/17 06:34:30;;;;;;;21.20;4.70;;;10.40;99.90;;;;;;5188988;22;20346;-74
2022/02/17 06:36:31;;;;;;;22.45;5.57;;;10.40;99.90;;;;;;5186154;22;20011;-74
2022/02/17 06:38:32;;;;;;;20.65;5.10;;;10.40;99.90;;;;;;5187210;22;20380;-74
2022/02/17 06:40:33;;;;;;;23.00;5.57;;;10.40;99.90;;;;;;5188466;22;20030;-74
2022/02/17 06:42:33;;;;;;;29.20;5.47;;;10.40;99.90;;;;;;5188754;22;20106;-74
2022/02/17 06:44:34;;;;;;;21.58;5.32;;;10.40;99.90;;;;;;5188952;22;20082;-74
2022/02/17 06:46:35;;;;;;;28.10;5.80;;;10.40;99.90;;;;;;5188588;22;20495;-74
2022/02/17 06:48:35;;;;;;;23.88;4.88;;;10.30;99.90;;;;;;5186914;22;20015;-74
2022/02/17 06:50:36;;;;;;;20.25;4.78;;;10.30;99.90;;;;;;5188639;22;20087;-74
2022/02/17 06:52:37;;;;;;;22.65;4.93;;;10.30;99.90;;;;;;5188803;22;20398;-74
2022/02/17 06:54:38;;;;;;;23.95;4.72;;;10.20;99.90;;;;;;5186942;22;20086;-74
2022/02/17 06:56:38;;;;;;;21.88;4.90;;;10.20;99.90;;;;;;5186153;22;20416;-74
2022/02/17 06:58:39;;;;;;;25.10;4.80;;;10.20;99.90;;;;;;5186686;22;20453;-74
2022/02/17 07:00:39;;;;;;;32.67;5.78;;;10.20;99.90;;;;;;5187944;22;20453;-74
2022/02/17 07:02:40;;;;;;;29.13;5.30;;;10.20;99.90;;;;;;5189012;22;20012;-74
2022/02/17 07:04:41;;;;;;;19.95;4.97;;;10.20;99.90;;;;;;5188998;22;20351;-74
2022/02/17 07:06:42;;;;;;;30.98;5.65;;;10.10;99.90;;;;;;5188282;22;20041;-74
2022/02/17 07:08:44;;;;;;;32.23;6.60;;;10.10;99.90;;;;;;5187522;22;20011;-74
2022/02/17 07:10:54;;;;;;;28.27;5.95;;;10.10;99.90;;;;;;5185931;22;20292;-74
2022/02/17 07:12:55;;;;;;;27.45;5.32;;;10.10;99.90;;;;;;5188901;22;20341;-74
2022/02/17 07:14:57;;;;;;;28.25;4.85;;;10.10;99.90;;;;;;5189154;22;20015;-74
2022/02/17 07:16:59;;;;;;;27.45;5.03;;;10.10;99.90;;;;;;5188175;22;20042;-74
2022/02/17 07:18:59;;;;;;;16.50;4.63;;;10.10;99.90;;;;;;5186687;22;20023;-74
2022/02/17 07:21:00;;;;;;;25.98;4.65;;;10.10;99.90;;;;;;5187929;22;20445;-74
2022/02/17 07:23:02;;;;;;;31.73;5.70;;;10.10;99.90;;;;;;5188609;22;20014;-74
2022/02/17 07:25:03;;;;;;;30.70;4.80;;;10.10;99.90;;;;;;5188130;22;20011;-74
2022/02/17 07:27:03;;;;;;;27.30;5.15;;;10.10;99.90;;;;;;5160171;23;20016;-74
2022/02/17 07:29:04;;;;;;;30.52;5.60;;;10.10;99.90;;;;;;5189549;22;20110;-74
2022/02/17 07:31:06;;;;;;;23.10;5.25;;;10.10;99.90;;;;;;5185716;22;20030;-74
2022/02/17 07:33:08;;;;;;;23.80;5.40;;;10.10;99.90;;;;;;5189332;22;20016;-74
2022/02/17 07:35:08;;;;;;;20.48;4.65;;;10.10;99.90;;;;;;5187785;22;20012;-74
2022/02/17 07:37:10;;;;;;;23.67;4.30;;;10.10;99.90;;;;;;5185546;22;20345;-74
2022/02/17 07:39:10;;;;;;;22.48;4.68;;;10.10;99.90;;;;;;5186291;22;20011;-74
2022/02/17 07:41:12;;;;;;;35.30;5.68;;;10.00;99.90;;;;;;5159827;23;20064;-74
2022/02/17 07:43:12;;;;;;;20.42;4.13;;;10.00;99.90;;;;;;5185162;22;20496;-74
2022/02/17 07:45:14;;;;;;;24.42;4.53;;;10.00;99.90;;;;;;5187848;22;20019;-74
2022/02/17 07:47:15;;;;;;;24.05;5.03;;;10.00;99.90;;;;;;5185067;22;20020;-74
2022/02/17 07:49:15;;;;;;;16.63;4.38;;;10.00;99.90;;;;;;5186712;22;20031;-74
2022/02/17 07:51:17;;;;;;;25.40;4.80;;;10.10;99.90;;;;;;5187354;22;20019;-74
2022/02/17 07:53:17;;;;;;;25.20;5.35;;;10.00;99.90;;;;;;5186929;22;20120;-74
2022/02/17 07:55:18;;;;;;;20.00;4.13;;;10.10;99.90;;;;;;5186546;22;20020;-74
2022/02/17 07:57:18;;;;;;;22.92;4.20;;;10.10;99.90;;;;;;5184456;22;20352;-74
2022/02/17 07:59:19;;;;;;;28.17;4.60;;;10.20;99.90;;;;;;5183857;22;20365;-74
2022/02/17 08:01:20;;;;;;;19.75;4.00;;;10.40;99.90;;;;;;5186542;22;20095;-74
2022/02/17 08:03:21;;;;;;;21.42;4.72;;;10.60;99.90;;;;;;5183947;22;20011;-74
2022/02/17 08:05:21;;;;;;;18.17;3.80;;;10.50;99.90;;;;;;5183190;22;20357;-74
2022/02/17 08:07:22;;;;;;;17.70;4.95;;;10.50;99.90;;;;;;5188431;22;20020;-74
2022/02/17 08:09:23;;;;;;;24.50;4.35;;;10.60;99.90;;;;;;5161465;23;20016;-74
2022/02/17 08:11:24;;;;;;;16.85;4.90;;;10.70;99.90;;;;;;5185512;22;20436;-74
2022/02/17 08:13:24;;;;;;;30.77;5.50;;;10.90;99.90;;;;;;5185278;22;20011;-74
2022/02/17 08:15:25;;;;;;;38.50;5.28;;;11.00;99.90;;;;;;5186117;22;20491;-74
2022/02/17 08:17:25;;;;;;;20.08;4.53;;;10.80;99.90;;;;;;5188661;22;20520;-74
2022/02/17 08:19:26;;;;;;;28.73;5.10;;;10.80;99.90;;;;;;5188245;22;20000;-74
2022/02/17 08:21:26;;;;;;;23.58;5.72;;;10.90;99.90;;;;;;5185077;22;20023;-72
2022/02/17 08:23:30;;;;;;;23.00;4.80;;;11.10;99.90;;;;;;5188123;22;20071;-73
2022/02/17 08:25:32;;;;;;;24.73;4.95;;;11.20;99.90;;;;;;5187492;22;20016;-71
2022/02/17 08:27:34;;;;;;;25.73;4.60;;;11.00;99.90;;;;;;5160328;23;20004;-71
2022/02/17 08:29:35;;;;;;;27.63;5.15;;;10.90;99.90;;;;;;5187463;22;20027;-71
2022/02/17 08:31:36;;;;;;;25.75;5.18;;;10.90;99.90;;;;;;5187309;22;20523;-71
2022/02/17 08:33:36;;;;;;;19.17;4.40;;;10.90;99.90;;;;;;5188071;22;20023;-71
2022/02/17 08:35:37;;;;;;;20.27;4.50;;;10.80;99.90;;;;;;5185375;22;20376;-71
2022/02/17 08:37:42;;;;;;;22.60;4.82;;;11.00;99.90;;;;;;5185356;22;20018;-71
2022/02/17 08:39:42;;;;;;;19.00;4.22;;;11.20;99.90;;;;;;5185416;22;20524;-71
2022/02/17 08:41:43;;;;;;;11.15;3.03;;;11.40;99.90;;;;;;5184966;22;20086;-71
2022/02/17 08:43:44;;;;;;;18.88;3.67;;;11.60;99.90;;;;;;5187592;22;20012;-71
2022/02/17 08:45:44;;;;;;;17.35;4.53;;;11.60;99.90;;;;;;5187291;22;20026;-71
2022/02/17 08:47:45;;;;;;;16.00;3.72;;;11.60;99.90;;;;;;5189111;22;20054;-71
2022/02/17 08:49:46;;;;;;;14.63;4.00;;;11.70;99.90;;;;;;5185395;22;20015;-71
2022/02/17 08:51:46;;;;;;;16.30;3.35;;;11.70;99.90;;;;;;5185023;22;20087;-71
2022/02/17 08:53:47;;;;;;;13.07;3.78;;;11.50;99.90;;;;;;5188945;22;20451;-71
2022/02/17 08:55:47;;;;;;;18.13;4.03;;;11.40;99.90;;;;;;5187691;22;20403;-71
2022/02/17 08:57:48;;;;;;;15.68;4.00;;;11.20;99.90;;;;;;5187879;22;20011;-71
2022/02/17 08:59:49;;;;;;;22.02;3.90;;;11.00;99.90;;;;;;5188068;22;20368;-71
2022/02/17 09:01:51;;;;;;;15.43;3.97;;;10.90;99.90;;;;;;5184555;22;20011;-71
2022/02/17 09:03:52;;;;;;;24.38;3.97;;;10.80;99.90;;;;;;5188685;22;20015;-71
2022/02/17 09:05:53;;;;;;;14.80;3.70;;;10.80;99.90;;;;;;5175833;22;20035;-71
2022/02/17 09:07:54;;;;;;;19.77;4.18;;;10.80;99.90;;;;;;5181207;22;20039;-71
2022/02/17 09:09:54;;;;;;;24.67;4.72;;;10.80;99.90;;;;;;5184142;22;20012;-71
2022/02/17 09:11:55;;;;;;;18.40;4.25;;;10.70;99.90;;;;;;5182264;22;20011;-71
2022/02/17 09:13:56;;;;;;;17.88;3.50;;;10.60;99.90;;;;;;5186931;22;20007;-71
2022/02/17 09:15:56;;;;;;;12.02;3.33;;;10.50;99.90;;;;;;5183920;22;20008;-71
2022/02/17 09:17:57;;;;;;;15.38;3.55;;;10.50;99.90;;;;;;5183407;22;20016;-71
2022/02/17 09:19:58;;;;;;;17.15;4.38;;;10.40;99.90;;;;;;5186930;22;20442;-71
2022/02/17 09:21:59;;;;;;;20.35;3.65;;;10.40;99.90;;;;;;5185875;22;20023;-71
2022/02/17 09:24:00;;;;;;;13.32;3.63;;;10.50;99.90;;;;;;5184759;22;20012;-71
2022/02/17 09:26:03;;;;;;;16.67;3.10;;;10.60;99.90;;;;;;5184076;22;20015;-71
2022/02/17 09:28:04;;;;;;;;;;;10.80;99.90;;;;;;5186786;22;20504;-71
2022/02/17 09:30:06;;;;;;;17.83;3.10;;;10.90;99.90;;;;;;5185514;22;19930;-71
2022/02/17 09:32:07;;;;;;;12.40;2.88;;;10.90;99.90;;;;;;5184594;22;20018;-71
2022/02/17 09:34:10;;;;;;;14.38;3.15;;;10.90;99.90;;;;;;5186937;22;20018;-71
2022/02/17 09:36:11;;;;;;;12.90;3.08;;;10.90;99.90;;;;;;5185769;22;20504;-71
2022/02/17 09:38:13;;;;;;;15.80;4.10;;;10.90;99.90;;;;;;5187223;22;20024;-71
2022/02/17 09:40:20;;;;;;;21.15;3.92;;;11.00;99.90;;;;;;5173358;22;20015;-71
2022/02/17 09:42:21;;;;;;;22.20;4.43;;;11.00;99.90;;;;;;5186602;22;20065;-71
2022/02/17 09:44:22;;;;;;;19.05;3.97;;;11.00;99.90;;;;;;5187718;22;20086;-71
2022/02/17 09:46:22;;;;;;;18.90;4.03;;;11.00;99.90;;;;;;5157891;23;20896;-71
2022/02/17 09:48:23;;;;;;;12.68;3.13;;;10.90;99.90;;;;;;5187354;22;20012;-71
2022/02/17 09:50:24;;;;;;;11.18;2.85;;;10.90;99.90;;;;;;5183320;22;20488;-71
2022/02/17 09:52:25;;;;;;;19.80;4.07;;;11.00;99.90;;;;;;5187044;22;20011;-71
2022/02/17 09:54:25;;;;;;;19.58;3.22;;;11.00;99.90;;;;;;5184650;22;20412;-71
2022/02/17 09:56:27;;;;;;;14.20;3.35;;;11.00;99.90;;;;;;5185889;22;20018;-71
2022/02/17 09:58:27;;;;;;;14.98;3.55;;;11.00;99.90;;;;;;5188401;22;20007;-71
2022/02/17 10:00:28;;;;;;;16.80;4.07;;;11.00;99.90;;;;;;5187996;22;20015;-71
2022/02/17 10:02:28;;;;;;;16.27;3.13;;;10.90;99.90;;;;;;5188019;22;20008;-71
2022/02/17 10:04:31;;;;;;;19.88;4.10;;;10.90;99.90;;;;;;5188513;22;20082;-71
2022/02/17 10:06:46;;;;;;;17.15;3.47;;;11.00;99.90;;;;;;5185546;22;20007;-71
2022/02/17 10:08:47;;;;;;;11.88;2.85;;;11.10;99.90;;;;;;5187667;22;20454;-71
2022/02/17 10:10:48;;;;;;;10.20;2.53;;;11.10;99.90;;;;;;5189177;22;20012;-71
2022/02/17 10:12:53;;;;;;;16.42;3.08;;;11.00;99.90;;;;;;5188949;22;20000;-71
2022/02/17 10:14:58;;;;;;;18.35;3.00;;;10.90;99.90;;;;;;5186441;22;20427;-71
2022/02/17 10:17:06;;;;;;;11.77;2.00;;;10.80;99.90;;;;;;5185301;22;20066;-71
2022/02/17 10:19:10;;;;;;;14.25;2.75;;;10.70;99.90;;;;;;5185863;22;20000;-70
2022/02/17 10:21:13;;;;;;;10.75;2.65;;;10.70;99.90;;;;;;5185543;22;20042;-71
2022/02/17 10:23:13;;;;;;;12.23;2.70;;;10.70;99.90;;;;;;5186136;22;20324;-71
2022/02/17 10:25:20;;;;;;;15.07;2.22;;;10.80;99.90;;;;;;5187369;22;20022;-71